Island Venture — WDG3765 — position and weather

sailwx.info

Track history (hours):
 
Tides and Currents Weather Stations Pressure Air Temp Water Temp Dewpoint Dewpoint Depression Visibility Wind Speed Wind Dir Waves Ship Positions

Island Venture

Owner: Island Tug & Barge Co, Seattle, WA. More information available from US FCC via Universal Licensing System and Coast Guard Vessel Documentation Center.

Last reported at 2015-Jan-31 17:33 UTC. Time now 2015-Jan-31 17:43 UTC.
Position N 47°34' W 122°21'.

Type: Tug. MMSI: 367529420.

Date/timePositionNaut miles runAvg speedWind from/ knotsBaromVisibWave heightAir tempDewpointWater temp
2015-Jan-31 17:33N 47°34' W 122°21'0 0.0
2015-Jan-31 17:33N 47°34' W 122°21'1 0.6
2015-Jan-31 16:33N 47°34' W 122°21'0 0.0
2015-Jan-31 16:33N 47°34' W 122°21'1 1.4
2015-Jan-31 15:33N 47°35' W 122°21'0 0.0
2015-Jan-31 15:33N 47°35' W 122°21'1 0.6
2015-Jan-31 14:09N 47°34' W 122°21'0 0.0
2015-Jan-31 14:06N 47°34' W 122°21'0 0.0
2015-Jan-31 13:33N 47°34' W 122°21'0 0.0
2015-Jan-31 13:31N 47°34' W 122°21'0 0.0
2015-Jan-31 12:33N 47°34' W 122°21'0 0.0
2015-Jan-31 12:31N 47°34' W 122°21'0 0.0
2015-Jan-31 11:33N 47°34' W 122°21'0 0.9
2015-Jan-31 11:31N 47°34' W 122°21'3 3.1
2015-Jan-31 10:33N 47°34' W 122°26'1 6.2
2015-Jan-31 10:25N 47°34' W 122°26'6 6.7
2015-Jan-31 09:33N 47°28' W 122°24'6 5.9
2015-Jan-31 08:33N 47°22' W 122°22'6 5.7
2015-Jan-31 07:33N 47°17' W 122°26'0 0.4
2015-Jan-31 06:33N 47°18' W 122°26'0 0.1
2015-Jan-31 05:33N 47°17' W 122°26'0 0.8
2015-Jan-31 05:27N 47°17' W 122°26'4 4.7
2015-Jan-31 04:33N 47°19' W 122°31'2 6.6
2015-Jan-31 04:11N 47°22' W 122°32'4 6.7
2015-Jan-31 03:33N 47°26' W 122°31'7 7.4
2015-Jan-31 02:33N 47°33' W 122°27'3 8.1
2015-Jan-31 02:12N 47°35' W 122°25'2 3.6
2015-Jan-31 01:33N 47°34' W 122°22'0 0.4
2015-Jan-31 01:11N 47°34' W 122°21'1 1.8
2015-Jan-31 00:36N 47°35' W 122°22'0 4.6
2015-Jan-31 00:33N 47°35' W 122°22'1 1.3
2015-Jan-30 23:33N 47°34' W 122°21'0 0.2
2015-Jan-30 23:31N 47°34' W 122°21'4 4.5
2015-Jan-30 22:33N 47°37' W 122°25'0 6.2
2015-Jan-30 22:30N 47°38' W 122°25'6 6.4
2015-Jan-30 21:33N 47°44' W 122°25'0 6.9
2015-Jan-30 21:30N 47°44' W 122°25'7 7.0
2015-Jan-30 20:33N 47°51' W 122°26'0 6.4
2015-Jan-30 20:30N 47°51' W 122°26'6 6.4
2015-Jan-30 19:33N 47°57' W 122°30'0 6.1
2015-Jan-30 19:29N 47°57' W 122°30'6 6.3
2015-Jan-30 18:32N 48°01' W 122°36'6 6.3
2015-Jan-30 17:33N 48°07' W 122°39'4 6.7
2015-Jan-30 16:54N 48°10' W 122°43'3 6.2
2015-Jan-30 16:23N 48°12' W 122°47'6 6.6
2015-Jan-30 15:30N 48°18' W 122°47'6 6.9
2015-Jan-30 14:33N 48°24' W 122°45'7 6.9
2015-Jan-30 13:33N 48°31' W 122°42'2 2.2
2015-Jan-30 12:33N 48°31' W 122°39'3 3.6
2015-Jan-30 11:40N 48°31' W 122°34'1 5.7
2015-Jan-30 11:33N 48°31' W 122°33'4 5.8
2015-Jan-30 10:48N 48°27' W 122°30'1 5.7
2015-Jan-30 10:33N 48°25' W 122°30'5 4.7
2015-Jan-30 09:33N 48°21' W 122°33'5 5.1
2015-Jan-30 08:30N 48°16' W 122°32'9 6.5
2015-Jan-30 07:12N 48°07' W 122°31'5 7.2
2015-Jan-30 06:33N 48°04' W 122°25'7 7.3
2015-Jan-30 05:33N 47°58' W 122°20'6 6.5
2015-Jan-30 04:33N 47°52' W 122°23'3 6.5
2015-Jan-30 04:07N 47°49' W 122°24'4 6.5
2015-Jan-30 03:33N 47°46' W 122°25'0 5.4
2015-Jan-30 03:33N 47°46' W 122°25'6 6.0
2015-Jan-30 02:33N 47°40' W 122°27'2 5.7
2015-Jan-30 02:07N 47°37' W 122°26'3 5.6
2015-Jan-30 01:32N 47°35' W 122°22'1 5.5
2015-Jan-30 01:26N 47°35' W 122°22'0 0.5
2015-Jan-30 00:33N 47°35' W 122°22'0 0.3
2015-Jan-30 00:31N 47°35' W 122°22'2 1.7
2015-Jan-29 23:33N 47°34' W 122°21'0 0.1
2015-Jan-29 23:30N 47°34' W 122°21'3 2.9
2015-Jan-29 22:33N 47°36' W 122°24'0 6.2
2015-Jan-29 22:30N 47°36' W 122°24'6 5.9
2015-Jan-29 21:33N 47°31' W 122°29'6 6.4
2015-Jan-29 20:34N 47°25' W 122°32'6 6.0
2015-Jan-29 19:33N 47°19' W 122°33'4 3.9
2015-Jan-29 18:33N 47°15' W 122°34'5 4.9
2015-Jan-29 17:33N 47°11' W 122°38'3 2.9
2015-Jan-29 16:33N 47°08' W 122°39'0 0.0
2015-Jan-29 14:33N 47°08' W 122°39'0 0.0
2015-Jan-29 13:33N 47°08' W 122°39'0 0.0
2015-Jan-29 12:31N 47°08' W 122°39'1 0.6
2015-Jan-29 11:33N 47°09' W 122°38'0 0.0
2015-Jan-29 10:33N 47°09' W 122°38'0 0.0
2015-Jan-29 09:33N 47°09' W 122°38'0 0.0
2015-Jan-29 08:33N 47°09' W 122°38'0 0.0
2015-Jan-29 08:10N 47°09' W 122°38'0 0.1
2015-Jan-29 07:33N 47°09' W 122°38'0 0.0
2015-Jan-29 06:31N 47°09' W 122°38'8 7.9
2015-Jan-29 05:33N 47°16' W 122°34'9 9.1
2015-Jan-29 04:33N 47°24' W 122°32'4 8.0
2015-Jan-29 04:04N 47°28' W 122°31'4 8.0
2015-Jan-29 03:33N 47°32' W 122°28'2 8.9
2015-Jan-29 03:20N 47°34' W 122°27'4 4.6
2015-Jan-29 02:33N 47°34' W 122°21'0 4.5
2015-Jan-29 02:30N 47°34' W 122°21'2 1.7
2015-Jan-29 01:33N 47°33' W 122°20'0 1.5
2015-Jan-29 01:30N 47°33' W 122°20'0 0.1
2015-Jan-29 00:33N 47°33' W 122°20'0 0.0
2015-Jan-29 00:30N 47°33' W 122°20'1 0.8
2015-Jan-28 23:33N 47°34' W 122°21'0 3.2
2015-Jan-28 23:30N 47°34' W 122°21'0 0.1
2015-Jan-28 22:33N 47°34' W 122°21'0 7.5
2015-Jan-28 22:30N 47°33' W 122°21'0 0.5
2015-Jan-28 21:33N 47°33' W 122°20'0 0.0
2015-Jan-28 21:29N 47°33' W 122°20'0 0.0
2015-Jan-28 20:34N 47°33' W 122°20'0 0.2
2015-Jan-28 20:32N 47°33' W 122°20'1 1.0
2015-Jan-28 19:33N 47°34' W 122°21'0 0.0
2015-Jan-28 19:29N 47°34' W 122°21'0 0.0
2015-Jan-28 18:28N 47°34' W 122°21'0 0.0
2015-Jan-28 17:33N 47°34' W 122°21'0 0.9
2015-Jan-28 17:31N 47°34' W 122°21'0 0.0
2015-Jan-28 16:33N 47°34' W 122°21'0 1.0
2015-Jan-28 16:31N 47°34' W 122°21'1 0.6
2015-Jan-28 15:26N 47°34' W 122°21'0 0.0
2015-Jan-28 14:33N 47°34' W 122°21'0 0.1
2015-Jan-28 14:31N 47°34' W 122°21'0 0.0
2015-Jan-28 13:33N 47°34' W 122°21'0 0.1
2015-Jan-28 13:31N 47°34' W 122°21'0 0.0
2015-Jan-28 12:33N 47°34' W 122°21'0 0.0
2015-Jan-28 12:30N 47°34' W 122°21'0 0.0
2015-Jan-28 11:33N 47°34' W 122°21'0 0.0
2015-Jan-28 11:30N 47°34' W 122°21'0 0.0
2015-Jan-28 10:33N 47°34' W 122°21'0 0.1
2015-Jan-28 10:30N 47°34' W 122°21'0 0.0
2015-Jan-28 09:34N 47°34' W 122°21'0 0.0
2015-Jan-28 09:33N 47°34' W 122°21'0 0.0
2015-Jan-28 08:33N 47°34' W 122°21'0 0.1
2015-Jan-28 08:29N 47°34' W 122°21'0 0.0
2015-Jan-28 07:34N 47°34' W 122°21'0 0.0
2015-Jan-28 07:33N 47°34' W 122°21'1 0.6
2015-Jan-28 06:39N 47°34' W 122°21'0 0.1
2015-Jan-28 06:33N 47°34' W 122°21'1 1.1
2015-Jan-28 05:34N 47°35' W 122°22'0 6.2
2015-Jan-28 05:33N 47°35' W 122°22'4 4.4
2015-Jan-28 04:33N 47°33' W 122°27'0 6.2
2015-Jan-28 04:29N 47°33' W 122°28'6 7.0
2015-Jan-28 03:33N 47°27' W 122°31'7 7.4
2015-Jan-28 02:33N 47°19' W 122°34'7 6.6
2015-Jan-28 01:33N 47°13' W 122°36'4 3.7
2015-Jan-28 00:33N 47°16' W 122°33'6 5.8
2015-Jan-27 23:33N 47°22' W 122°32'6 6.2
2015-Jan-27 22:33N 47°28' W 122°31'6 6.3
2015-Jan-27 21:33N 47°34' W 122°27'1 6.9
2015-Jan-27 21:26N 47°34' W 122°26'3 3.3
2015-Jan-27 20:33N 47°35' W 122°22'0 5.4
2015-Jan-27 20:32N 47°35' W 122°22'2 2.0
2015-Jan-27 19:33N 47°33' W 122°21'0 3.2
2015-Jan-27 19:32N 47°33' W 122°21'2 1.6
2015-Jan-27 18:33N 47°32' W 122°19'0 0.0
2015-Jan-27 18:31N 47°32' W 122°19'0 0.0
2015-Jan-27 17:33N 47°32' W 122°19'0 0.2
2015-Jan-27 17:32N 47°32' W 122°19'0 0.0
2015-Jan-27 16:33N 47°32' W 122°19'0 0.0
2015-Jan-27 16:31N 47°32' W 122°19'0 0.0
2015-Jan-27 15:33N 47°32' W 122°19'0 0.2
2015-Jan-27 15:32N 47°32' W 122°19'0 0.0
2015-Jan-27 14:33N 47°32' W 122°19'0 0.0
2015-Jan-27 14:32N 47°32' W 122°19'0 0.0
2015-Jan-27 13:33N 47°32' W 122°19'0 0.0
2015-Jan-27 13:32N 47°32' W 122°19'0 0.0
2015-Jan-27 12:33N 47°32' W 122°19'0 0.0
2015-Jan-27 12:31N 47°32' W 122°19'0 0.0
2015-Jan-27 11:33N 47°32' W 122°19'0 0.0
2015-Jan-27 11:31N 47°32' W 122°19'0 0.0
2015-Jan-27 10:33N 47°32' W 122°19'0 0.0
2015-Jan-27 10:25N 47°32' W 122°19'0 0.0
2015-Jan-27 09:33N 47°32' W 122°19'0 0.0
2015-Jan-27 09:30N 47°32' W 122°19'0 0.0
2015-Jan-27 08:33N 47°32' W 122°19'0 0.0
2015-Jan-27 07:33N 47°32' W 122°19'0 0.0
2015-Jan-27 06:33N 47°32' W 122°19'0 0.0
2015-Jan-27 06:15N 47°32' W 122°19'0 0.0
2015-Jan-27 05:33N 47°32' W 122°19'0 1.8
2015-Jan-27 05:26N 47°32' W 122°20'2 2.5
2015-Jan-27 04:33N 47°34' W 122°21'0 6.1
2015-Jan-27 04:31N 47°34' W 122°21'2 1.8
2015-Jan-27 03:33N 47°32' W 122°20'0 2.3
2015-Jan-27 03:30N 47°32' W 122°20'2 2.5
2015-Jan-27 02:33N 47°35' W 122°22'0 2.4
2015-Jan-27 02:31N 47°35' W 122°22'1 1.1
2015-Jan-27 01:33N 47°36' W 122°22'0 0.2
2015-Jan-27 01:30N 47°36' W 122°22'0 0.4
2015-Jan-27 00:33N 47°36' W 122°22'0 0.0
2015-Jan-27 00:30N 47°36' W 122°22'2 2.6
2015-Jan-26 23:33N 47°35' W 122°26'0 4.4
2015-Jan-26 23:30N 47°35' W 122°26'5 4.8
2015-Jan-26 22:33N 47°30' W 122°25'0 4.5
2015-Jan-26 22:30N 47°30' W 122°25'5 5.3
2015-Jan-26 21:33N 47°25' W 122°22'2 5.2
2015-Jan-26 21:10N 47°24' W 122°21'3 4.8
2015-Jan-26 20:33N 47°21' W 122°23'5 4.7
2015-Jan-26 19:33N 47°17' W 122°26'1 1.0
2015-Jan-26 18:33N 47°17' W 122°25'0 0.1
2015-Jan-26 17:33N 47°17' W 122°25'0 0.0
2015-Jan-26 16:33N 47°17' W 122°25'0 0.1
2015-Jan-26 15:33N 47°17' W 122°25'1 1.4
2015-Jan-26 14:33N 47°17' W 122°26'3 3.1
2015-Jan-26 13:33N 47°19' W 122°30'5 5.3
2015-Jan-26 12:33N 47°24' W 122°32'6 6.1
2015-Jan-26 11:33N 47°30' W 122°29'5 6.4
2015-Jan-26 10:48N 47°34' W 122°26'2 6.8
2015-Jan-26 10:33N 47°36' W 122°24'0 0.0
2015-Jan-26 10:33N 47°36' W 122°24'3 2.9
2015-Jan-26 09:33N 47°34' W 122°21'0 0.0
2015-Jan-26 09:33N 47°34' W 122°21'0 0.5
2015-Jan-26 08:33N 47°34' W 122°21'0 0.0
2015-Jan-26 08:33N 47°34' W 122°21'  
2015-Jan-24 02:04N 47°34' W 122°21'1 1.0
2015-Jan-24 01:33N 47°34' W 122°21'0 0.0
2015-Jan-24 01:28N 47°34' W 122°21'0 0.2
2015-Jan-24 00:33N 47°34' W 122°21'0 7.9
2015-Jan-24 00:33N 47°34' W 122°21'0 0.1
2015-Jan-23 23:33N 47°34' W 122°21'0 1.6
2015-Jan-23 23:33N 47°34' W 122°21'1 0.5
2015-Jan-23 22:33N 47°34' W 122°21'0 0.0
2015-Jan-23 22:33N 47°34' W 122°21'0 0.1
2015-Jan-23 21:33N 47°34' W 122°21'0 6.3
2015-Jan-23 21:32N 47°34' W 122°21'0 0.2
2015-Jan-23 20:26N 47°34' W 122°21'0 0.0
2015-Jan-23 19:33N 47°34' W 122°21'0 0.0
2015-Jan-23 18:31N 47°34' W 122°21'1 1.3
2015-Jan-23 17:33N 47°33' W 122°21'4 3.8
2015-Jan-23 16:33N 47°36' W 122°23'5 4.6
2015-Jan-23 15:33N 47°40' W 122°28'4 4.4
2015-Jan-23 14:33N 47°44' W 122°28'4 4.2
2015-Jan-23 13:33N 47°48' W 122°28'4 4.3
2015-Jan-23 12:33N 47°52' W 122°30'4 3.7
2015-Jan-23 11:33N 47°56' W 122°32'6 7.8
2015-Jan-23 10:44N 48°00' W 122°38'2 8.9
2015-Jan-23 10:33N 48°02' W 122°39'9 8.1
2015-Jan-23 09:27N 48°10' W 122°45'0 8.7
2015-Jan-23 09:26N 48°10' W 122°46'6 6.6
2015-Jan-23 08:32N 48°13' W 122°53'6 5.6
2015-Jan-23 07:33N 48°18' W 122°57'6 6.2
2015-Jan-23 06:31N 48°23' W 123°02'7 7.3
2015-Jan-23 05:33N 48°29' W 123°09'9 8.6
2015-Jan-23 04:33N 48°37' W 123°14'4 8.6
2015-Jan-23 04:05N 48°41' W 123°16'3 6.4
2015-Jan-23 03:33N 48°43' W 123°12'3 3.3
2015-Jan-23 02:33N 48°46' W 123°13'0 0.7
2015-Jan-23 02:28N 48°46' W 123°13'0 0.1
2015-Jan-23 01:33N 48°46' W 123°13'0 0.0
2015-Jan-23 01:33N 48°46' W 123°13'0 0.1
2015-Jan-23 00:33N 48°46' W 123°13'0 0.5
2015-Jan-23 00:13N 48°46' W 123°13'0 0.1
2015-Jan-22 23:32N 48°46' W 123°13'0 1.3
2015-Jan-22 23:13N 48°46' W 123°14'0 0.2
2015-Jan-22 22:31N 48°46' W 123°13'1 0.7
2015-Jan-22 21:33N 48°47' W 123°13'1 0.8
2015-Jan-22 20:33N 48°47' W 123°14'0 1.6
2015-Jan-22 20:27N 48°47' W 123°14'0 0.5
2015-Jan-22 19:33N 48°48' W 123°14'0 0.4
2015-Jan-22 18:32N 48°48' W 123°14'1 0.7
2015-Jan-22 17:35N 48°48' W 123°14'0 1.6
2015-Jan-22 17:33N 48°48' W 123°14'2 2.5
2015-Jan-22 16:41N 48°46' W 123°12'0 4.2
2015-Jan-22 16:33N 48°46' W 123°11'0 3.5
2015-Jan-22 16:26N 48°46' W 123°11'2 2.5
2015-Jan-22 15:33N 48°44' W 123°08'5 5.5
2015-Jan-22 14:33N 48°41' W 123°15'6 8.9
2015-Jan-22 13:50N 48°35' W 123°13'311.3
2015-Jan-22 13:33N 48°32' W 123°11'1010.2
2015-Jan-22 12:33N 48°24' W 123°02'8 8.5
2015-Jan-22 11:33N 48°17' W 122°55'7 6.9
2015-Jan-22 10:30N 48°12' W 122°47'4 4.4
2015-Jan-22 09:33N 48°09' W 122°42'5 6.2
2015-Jan-22 08:49N 48°05' W 122°38'2 7.8
2015-Jan-22 08:32N 48°03' W 122°38'8 7.8
2015-Jan-22 07:33N 47°57' W 122°31'3 8.0
2015-Jan-22 07:10N 47°54' W 122°28'5 8.5
2015-Jan-22 06:33N 47°49' W 122°26'9 8.6
2015-Jan-22 05:33N 47°41' W 122°27'1 8.6
2015-Jan-22 05:29N 47°40' W 122°27'6 6.6
2015-Jan-22 04:33N 47°35' W 122°22'0 0.0
2015-Jan-22 04:29N 47°35' W 122°22'1 1.0
2015-Jan-22 03:34N 47°34' W 122°21'0 0.0
2015-Jan-22 03:33N 47°34' W 122°21'0 0.0
2015-Jan-22 02:33N 47°34' W 122°21'0 0.0
2015-Jan-22 02:32N 47°34' W 122°21'0 0.0
2015-Jan-22 01:33N 47°34' W 122°21'0 0.2
2015-Jan-22 01:31N 47°34' W 122°21'1 0.5
2015-Jan-22 00:33N 47°34' W 122°21'0 0.0
2015-Jan-22 00:31N 47°34' W 122°21'1 0.5
2015-Jan-21 23:33N 47°34' W 122°21'0 0.0
2015-Jan-21 23:31N 47°34' W 122°21'0 0.1
2015-Jan-21 22:50N 47°34' W 122°21'0 2.6
2015-Jan-21 22:46N 47°34' W 122°21'0 0.0
2015-Jan-21 22:46N 47°34' W 122°21'1 2.3
2015-Jan-21 22:33N 47°35' W 122°22'1 2.6
2015-Jan-21 22:21N 47°35' W 122°22'5 6.2
2015-Jan-21 21:33N 47°39' W 122°27'0 7.5
2015-Jan-21 21:30N 47°39' W 122°27'1 1.3
2015-Jan-21 20:33N 47°40' W 122°25'0 0.0
2015-Jan-21 20:30N 47°40' W 122°25'0 0.0
2015-Jan-21 19:33N 47°40' W 122°25'0 0.1
2015-Jan-21 19:30N 47°40' W 122°25'0 0.0
2015-Jan-21 18:33N 47°40' W 122°25'0 0.0
2015-Jan-21 18:30N 47°40' W 122°25'  
Track history (hours):
 
Tides and Currents Weather Stations Pressure Air Temp Water Temp Dewpoint Dewpoint Depression Visibility Wind Speed Wind Dir Waves Ship Positions

Island Venture

Owner: Island Tug & Barge Co, Seattle, WA. More information available from US FCC via Universal Licensing System and Coast Guard Vessel Documentation Center.

Last reported at 2015-Jan-31 17:33 UTC. Time now 2015-Jan-31 17:43 UTC.
Position N 47°34' W 122°21'.

Type: Tug. MMSI: 367529420.

Date/timePositionNaut miles runAvg speedWind from/ knotsBaromVisibWave heightAir tempDewpointWater temp
2015-Jan-31 17:33N 47°34' W 122°21'0 0.0
2015-Jan-31 17:33N 47°34' W 122°21'1 0.6
2015-Jan-31 16:33N 47°34' W 122°21'0 0.0
2015-Jan-31 16:33N 47°34' W 122°21'1 1.4
2015-Jan-31 15:33N 47°35' W 122°21'0 0.0
2015-Jan-31 15:33N 47°35' W 122°21'1 0.6
2015-Jan-31 14:09N 47°34' W 122°21'0 0.0
2015-Jan-31 14:06N 47°34' W 122°21'0 0.0
2015-Jan-31 13:33N 47°34' W 122°21'0 0.0
2015-Jan-31 13:31N 47°34' W 122°21'0 0.0
2015-Jan-31 12:33N 47°34' W 122°21'0 0.0
2015-Jan-31 12:31N 47°34' W 122°21'0 0.0
2015-Jan-31 11:33N 47°34' W 122°21'0 0.9
2015-Jan-31 11:31N 47°34' W 122°21'3 3.1
2015-Jan-31 10:33N 47°34' W 122°26'1 6.2
2015-Jan-31 10:25N 47°34' W 122°26'6 6.7
2015-Jan-31 09:33N 47°28' W 122°24'6 5.9
2015-Jan-31 08:33N 47°22' W 122°22'6 5.7
2015-Jan-31 07:33N 47°17' W 122°26'0 0.4
2015-Jan-31 06:33N 47°18' W 122°26'0 0.1
2015-Jan-31 05:33N 47°17' W 122°26'0 0.8
2015-Jan-31 05:27N 47°17' W 122°26'4 4.7
2015-Jan-31 04:33N 47°19' W 122°31'2 6.6
2015-Jan-31 04:11N 47°22' W 122°32'4 6.7
2015-Jan-31 03:33N 47°26' W 122°31'7 7.4
2015-Jan-31 02:33N 47°33' W 122°27'3 8.1
2015-Jan-31 02:12N 47°35' W 122°25'2 3.6
2015-Jan-31 01:33N 47°34' W 122°22'0 0.4
2015-Jan-31 01:11N 47°34' W 122°21'1 1.8
2015-Jan-31 00:36N 47°35' W 122°22'0 4.6
2015-Jan-31 00:33N 47°35' W 122°22'1 1.3
2015-Jan-30 23:33N 47°34' W 122°21'0 0.2
2015-Jan-30 23:31N 47°34' W 122°21'4 4.5
2015-Jan-30 22:33N 47°37' W 122°25'0 6.2
2015-Jan-30 22:30N 47°38' W 122°25'6 6.4
2015-Jan-30 21:33N 47°44' W 122°25'0 6.9
2015-Jan-30 21:30N 47°44' W 122°25'7 7.0
2015-Jan-30 20:33N 47°51' W 122°26'0 6.4
2015-Jan-30 20:30N 47°51' W 122°26'6 6.4
2015-Jan-30 19:33N 47°57' W 122°30'0 6.1
2015-Jan-30 19:29N 47°57' W 122°30'6 6.3
2015-Jan-30 18:32N 48°01' W 122°36'6 6.3
2015-Jan-30 17:33N 48°07' W 122°39'4 6.7
2015-Jan-30 16:54N 48°10' W 122°43'3 6.2
2015-Jan-30 16:23N 48°12' W 122°47'6 6.6
2015-Jan-30 15:30N 48°18' W 122°47'6 6.9
2015-Jan-30 14:33N 48°24' W 122°45'7 6.9
2015-Jan-30 13:33N 48°31' W 122°42'2 2.2
2015-Jan-30 12:33N 48°31' W 122°39'3 3.6
2015-Jan-30 11:40N 48°31' W 122°34'1 5.7
2015-Jan-30 11:33N 48°31' W 122°33'4 5.8
2015-Jan-30 10:48N 48°27' W 122°30'1 5.7
2015-Jan-30 10:33N 48°25' W 122°30'5 4.7
2015-Jan-30 09:33N 48°21' W 122°33'5 5.1
2015-Jan-30 08:30N 48°16' W 122°32'9 6.5
2015-Jan-30 07:12N 48°07' W 122°31'5 7.2
2015-Jan-30 06:33N 48°04' W 122°25'7 7.3
2015-Jan-30 05:33N 47°58' W 122°20'6 6.5
2015-Jan-30 04:33N 47°52' W 122°23'3 6.5
2015-Jan-30 04:07N 47°49' W 122°24'4 6.5
2015-Jan-30 03:33N 47°46' W 122°25'0 5.4
2015-Jan-30 03:33N 47°46' W 122°25'6 6.0
2015-Jan-30 02:33N 47°40' W 122°27'2 5.7
2015-Jan-30 02:07N 47°37' W 122°26'3 5.6
2015-Jan-30 01:32N 47°35' W 122°22'1 5.5
2015-Jan-30 01:26N 47°35' W 122°22'0 0.5
2015-Jan-30 00:33N 47°35' W 122°22'0 0.3
2015-Jan-30 00:31N 47°35' W 122°22'2 1.7
2015-Jan-29 23:33N 47°34' W 122°21'0 0.1
2015-Jan-29 23:30N 47°34' W 122°21'3 2.9
2015-Jan-29 22:33N 47°36' W 122°24'0 6.2
2015-Jan-29 22:30N 47°36' W 122°24'6 5.9
2015-Jan-29 21:33N 47°31' W 122°29'6 6.4
2015-Jan-29 20:34N 47°25' W 122°32'6 6.0
2015-Jan-29 19:33N 47°19' W 122°33'4 3.9
2015-Jan-29 18:33N 47°15' W 122°34'5 4.9
2015-Jan-29 17:33N 47°11' W 122°38'3 2.9
2015-Jan-29 16:33N 47°08' W 122°39'0 0.0
2015-Jan-29 14:33N 47°08' W 122°39'0 0.0
2015-Jan-29 13:33N 47°08' W 122°39'0 0.0
2015-Jan-29 12:31N 47°08' W 122°39'1 0.6
2015-Jan-29 11:33N 47°09' W 122°38'0 0.0
2015-Jan-29 10:33N 47°09' W 122°38'0 0.0
2015-Jan-29 09:33N 47°09' W 122°38'0 0.0
2015-Jan-29 08:33N 47°09' W 122°38'0 0.0
2015-Jan-29 08:10N 47°09' W 122°38'0 0.1
2015-Jan-29 07:33N 47°09' W 122°38'0 0.0
2015-Jan-29 06:31N 47°09' W 122°38'8 7.9
2015-Jan-29 05:33N 47°16' W 122°34'9 9.1
2015-Jan-29 04:33N 47°24' W 122°32'4 8.0
2015-Jan-29 04:04N 47°28' W 122°31'4 8.0
2015-Jan-29 03:33N 47°32' W 122°28'2 8.9
2015-Jan-29 03:20N 47°34' W 122°27'4 4.6
2015-Jan-29 02:33N 47°34' W 122°21'0 4.5
2015-Jan-29 02:30N 47°34' W 122°21'2 1.7
2015-Jan-29 01:33N 47°33' W 122°20'0 1.5
2015-Jan-29 01:30N 47°33' W 122°20'0 0.1
2015-Jan-29 00:33N 47°33' W 122°20'0 0.0
2015-Jan-29 00:30N 47°33' W 122°20'1 0.8
2015-Jan-28 23:33N 47°34' W 122°21'0 3.2
2015-Jan-28 23:30N 47°34' W 122°21'0 0.1
2015-Jan-28 22:33N 47°34' W 122°21'0 7.5
2015-Jan-28 22:30N 47°33' W 122°21'0 0.5
2015-Jan-28 21:33N 47°33' W 122°20'0 0.0
2015-Jan-28 21:29N 47°33' W 122°20'0 0.0
2015-Jan-28 20:34N 47°33' W 122°20'0 0.2
2015-Jan-28 20:32N 47°33' W 122°20'1 1.0
2015-Jan-28 19:33N 47°34' W 122°21'0 0.0
2015-Jan-28 19:29N 47°34' W 122°21'0 0.0
2015-Jan-28 18:28N 47°34' W 122°21'0 0.0
2015-Jan-28 17:33N 47°34' W 122°21'0 0.9
2015-Jan-28 17:31N 47°34' W 122°21'0 0.0
2015-Jan-28 16:33N 47°34' W 122°21'0 1.0
2015-Jan-28 16:31N 47°34' W 122°21'1 0.6
2015-Jan-28 15:26N 47°34' W 122°21'0 0.0
2015-Jan-28 14:33N 47°34' W 122°21'0 0.1
2015-Jan-28 14:31N 47°34' W 122°21'0 0.0
2015-Jan-28 13:33N 47°34' W 122°21'0 0.1
2015-Jan-28 13:31N 47°34' W 122°21'0 0.0
2015-Jan-28 12:33N 47°34' W 122°21'0 0.0
2015-Jan-28 12:30N 47°34' W 122°21'0 0.0
2015-Jan-28 11:33N 47°34' W 122°21'0 0.0
2015-Jan-28 11:30N 47°34' W 122°21'0 0.0
2015-Jan-28 10:33N 47°34' W 122°21'0 0.1
2015-Jan-28 10:30N 47°34' W 122°21'0 0.0
2015-Jan-28 09:34N 47°34' W 122°21'0 0.0
2015-Jan-28 09:33N 47°34' W 122°21'0 0.0
2015-Jan-28 08:33N 47°34' W 122°21'0 0.1
2015-Jan-28 08:29N 47°34' W 122°21'0 0.0
2015-Jan-28 07:34N 47°34' W 122°21'0 0.0
2015-Jan-28 07:33N 47°34' W 122°21'1 0.6
2015-Jan-28 06:39N 47°34' W 122°21'0 0.1
2015-Jan-28 06:33N 47°34' W 122°21'1 1.1
2015-Jan-28 05:34N 47°35' W 122°22'0 6.2
2015-Jan-28 05:33N 47°35' W 122°22'4 4.4
2015-Jan-28 04:33N 47°33' W 122°27'0 6.2
2015-Jan-28 04:29N 47°33' W 122°28'6 7.0
2015-Jan-28 03:33N 47°27' W 122°31'7 7.4
2015-Jan-28 02:33N 47°19' W 122°34'7 6.6
2015-Jan-28 01:33N 47°13' W 122°36'4 3.7
2015-Jan-28 00:33N 47°16' W 122°33'6 5.8
2015-Jan-27 23:33N 47°22' W 122°32'6 6.2
2015-Jan-27 22:33N 47°28' W 122°31'6 6.3
2015-Jan-27 21:33N 47°34' W 122°27'1 6.9
2015-Jan-27 21:26N 47°34' W 122°26'3 3.3
2015-Jan-27 20:33N 47°35' W 122°22'0 5.4
2015-Jan-27 20:32N 47°35' W 122°22'2 2.0
2015-Jan-27 19:33N 47°33' W 122°21'0 3.2
2015-Jan-27 19:32N 47°33' W 122°21'2 1.6
2015-Jan-27 18:33N 47°32' W 122°19'0 0.0
2015-Jan-27 18:31N 47°32' W 122°19'0 0.0
2015-Jan-27 17:33N 47°32' W 122°19'0 0.2
2015-Jan-27 17:32N 47°32' W 122°19'0 0.0
2015-Jan-27 16:33N 47°32' W 122°19'0 0.0
2015-Jan-27 16:31N 47°32' W 122°19'0 0.0
2015-Jan-27 15:33N 47°32' W 122°19'0 0.2
2015-Jan-27 15:32N 47°32' W 122°19'0 0.0
2015-Jan-27 14:33N 47°32' W 122°19'0 0.0
2015-Jan-27 14:32N 47°32' W 122°19'0 0.0
2015-Jan-27 13:33N 47°32' W 122°19'0 0.0
2015-Jan-27 13:32N 47°32' W 122°19'0 0.0
2015-Jan-27 12:33N 47°32' W 122°19'0 0.0
2015-Jan-27 12:31N 47°32' W 122°19'0 0.0
2015-Jan-27 11:33N 47°32' W 122°19'0 0.0
2015-Jan-27 11:31N 47°32' W 122°19'0 0.0
2015-Jan-27 10:33N 47°32' W 122°19'0 0.0
2015-Jan-27 10:25N 47°32' W 122°19'0 0.0
2015-Jan-27 09:33N 47°32' W 122°19'0 0.0
2015-Jan-27 09:30N 47°32' W 122°19'0 0.0
2015-Jan-27 08:33N 47°32' W 122°19'0 0.0
2015-Jan-27 07:33N 47°32' W 122°19'0 0.0
2015-Jan-27 06:33N 47°32' W 122°19'0 0.0
2015-Jan-27 06:15N 47°32' W 122°19'0 0.0
2015-Jan-27 05:33N 47°32' W 122°19'0 1.8
2015-Jan-27 05:26N 47°32' W 122°20'2 2.5
2015-Jan-27 04:33N 47°34' W 122°21'0 6.1
2015-Jan-27 04:31N 47°34' W 122°21'2 1.8
2015-Jan-27 03:33N 47°32' W 122°20'0 2.3
2015-Jan-27 03:30N 47°32' W 122°20'2 2.5
2015-Jan-27 02:33N 47°35' W 122°22'0 2.4
2015-Jan-27 02:31N 47°35' W 122°22'1 1.1
2015-Jan-27 01:33N 47°36' W 122°22'0 0.2
2015-Jan-27 01:30N 47°36' W 122°22'0 0.4
2015-Jan-27 00:33N 47°36' W 122°22'0 0.0
2015-Jan-27 00:30N 47°36' W 122°22'2 2.6
2015-Jan-26 23:33N 47°35' W 122°26'0 4.4
2015-Jan-26 23:30N 47°35' W 122°26'5 4.8
2015-Jan-26 22:33N 47°30' W 122°25'0 4.5
2015-Jan-26 22:30N 47°30' W 122°25'5 5.3
2015-Jan-26 21:33N 47°25' W 122°22'2 5.2
2015-Jan-26 21:10N 47°24' W 122°21'3 4.8
2015-Jan-26 20:33N 47°21' W 122°23'5 4.7
2015-Jan-26 19:33N 47°17' W 122°26'1 1.0
2015-Jan-26 18:33N 47°17' W 122°25'0 0.1
2015-Jan-26 17:33N 47°17' W 122°25'0 0.0
2015-Jan-26 16:33N 47°17' W 122°25'0 0.1
2015-Jan-26 15:33N 47°17' W 122°25'1 1.4
2015-Jan-26 14:33N 47°17' W 122°26'3 3.1
2015-Jan-26 13:33N 47°19' W 122°30'5 5.3
2015-Jan-26 12:33N 47°24' W 122°32'6 6.1
2015-Jan-26 11:33N 47°30' W 122°29'5 6.4
2015-Jan-26 10:48N 47°34' W 122°26'2 6.8
2015-Jan-26 10:33N 47°36' W 122°24'0 0.0
2015-Jan-26 10:33N 47°36' W 122°24'3 2.9
2015-Jan-26 09:33N 47°34' W 122°21'0 0.0
2015-Jan-26 09:33N 47°34' W 122°21'0 0.5
2015-Jan-26 08:33N 47°34' W 122°21'0 0.0
2015-Jan-26 08:33N 47°34' W 122°21'  
2015-Jan-24 02:04N 47°34' W 122°21'1 1.0
2015-Jan-24 01:33N 47°34' W 122°21'0 0.0
2015-Jan-24 01:28N 47°34' W 122°21'0 0.2
2015-Jan-24 00:33N 47°34' W 122°21'0 7.9
2015-Jan-24 00:33N 47°34' W 122°21'0 0.1
2015-Jan-23 23:33N 47°34' W 122°21'0 1.6
2015-Jan-23 23:33N 47°34' W 122°21'1 0.5
2015-Jan-23 22:33N 47°34' W 122°21'0 0.0
2015-Jan-23 22:33N 47°34' W 122°21'0 0.1
2015-Jan-23 21:33N 47°34' W 122°21'0 6.3
2015-Jan-23 21:32N 47°34' W 122°21'0 0.2
2015-Jan-23 20:26N 47°34' W 122°21'0 0.0
2015-Jan-23 19:33N 47°34' W 122°21'0 0.0
2015-Jan-23 18:31N 47°34' W 122°21'1 1.3
2015-Jan-23 17:33N 47°33' W 122°21'4 3.8
2015-Jan-23 16:33N 47°36' W 122°23'5 4.6
2015-Jan-23 15:33N 47°40' W 122°28'4 4.4
2015-Jan-23 14:33N 47°44' W 122°28'4 4.2
2015-Jan-23 13:33N 47°48' W 122°28'4 4.3
2015-Jan-23 12:33N 47°52' W 122°30'4 3.7
2015-Jan-23 11:33N 47°56' W 122°32'6 7.8
2015-Jan-23 10:44N 48°00' W 122°38'2 8.9
2015-Jan-23 10:33N 48°02' W 122°39'9 8.1
2015-Jan-23 09:27N 48°10' W 122°45'0 8.7
2015-Jan-23 09:26N 48°10' W 122°46'6 6.6
2015-Jan-23 08:32N 48°13' W 122°53'6 5.6
2015-Jan-23 07:33N 48°18' W 122°57'6 6.2
2015-Jan-23 06:31N 48°23' W 123°02'7 7.3
2015-Jan-23 05:33N 48°29' W 123°09'9 8.6
2015-Jan-23 04:33N 48°37' W 123°14'4 8.6
2015-Jan-23 04:05N 48°41' W 123°16'3 6.4
2015-Jan-23 03:33N 48°43' W 123°12'3 3.3
2015-Jan-23 02:33N 48°46' W 123°13'0 0.7
2015-Jan-23 02:28N 48°46' W 123°13'0 0.1
2015-Jan-23 01:33N 48°46' W 123°13'0 0.0
2015-Jan-23 01:33N 48°46' W 123°13'0 0.1
2015-Jan-23 00:33N 48°46' W 123°13'0 0.5
2015-Jan-23 00:13N 48°46' W 123°13'0 0.1
2015-Jan-22 23:32N 48°46' W 123°13'0 1.3
2015-Jan-22 23:13N 48°46' W 123°14'0 0.2
2015-Jan-22 22:31N 48°46' W 123°13'1 0.7
2015-Jan-22 21:33N 48°47' W 123°13'1 0.8
2015-Jan-22 20:33N 48°47' W 123°14'0 1.6
2015-Jan-22 20:27N 48°47' W 123°14'0 0.5
2015-Jan-22 19:33N 48°48' W 123°14'0 0.4
2015-Jan-22 18:32N 48°48' W 123°14'1 0.7
2015-Jan-22 17:35N 48°48' W 123°14'0 1.6
2015-Jan-22 17:33N 48°48' W 123°14'2 2.5
2015-Jan-22 16:41N 48°46' W 123°12'0 4.2
2015-Jan-22 16:33N 48°46' W 123°11'0 3.5
2015-Jan-22 16:26N 48°46' W 123°11'2 2.5
2015-Jan-22 15:33N 48°44' W 123°08'5 5.5
2015-Jan-22 14:33N 48°41' W 123°15'6 8.9
2015-Jan-22 13:50N 48°35' W 123°13'311.3
2015-Jan-22 13:33N 48°32' W 123°11'1010.2
2015-Jan-22 12:33N 48°24' W 123°02'8 8.5
2015-Jan-22 11:33N 48°17' W 122°55'7 6.9
2015-Jan-22 10:30N 48°12' W 122°47'4 4.4
2015-Jan-22 09:33N 48°09' W 122°42'5 6.2
2015-Jan-22 08:49N 48°05' W 122°38'2 7.8
2015-Jan-22 08:32N 48°03' W 122°38'8 7.8
2015-Jan-22 07:33N 47°57' W 122°31'3 8.0
2015-Jan-22 07:10N 47°54' W 122°28'5 8.5
2015-Jan-22 06:33N 47°49' W 122°26'9 8.6
2015-Jan-22 05:33N 47°41' W 122°27'1 8.6
2015-Jan-22 05:29N 47°40' W 122°27'6 6.6
2015-Jan-22 04:33N 47°35' W 122°22'0 0.0
2015-Jan-22 04:29N 47°35' W 122°22'1 1.0
2015-Jan-22 03:34N 47°34' W 122°21'0 0.0
2015-Jan-22 03:33N 47°34' W 122°21'0 0.0
2015-Jan-22 02:33N 47°34' W 122°21'0 0.0
2015-Jan-22 02:32N 47°34' W 122°21'0 0.0
2015-Jan-22 01:33N 47°34' W 122°21'0 0.2
2015-Jan-22 01:31N 47°34' W 122°21'1 0.5
2015-Jan-22 00:33N 47°34' W 122°21'0 0.0
2015-Jan-22 00:31N 47°34' W 122°21'1 0.5
2015-Jan-21 23:33N 47°34' W 122°21'0 0.0
2015-Jan-21 23:31N 47°34' W 122°21'0 0.1
2015-Jan-21 22:50N 47°34' W 122°21'0 2.6
2015-Jan-21 22:46N 47°34' W 122°21'0 0.0
2015-Jan-21 22:46N 47°34' W 122°21'1 2.3
2015-Jan-21 22:33N 47°35' W 122°22'1 2.6
2015-Jan-21 22:21N 47°35' W 122°22'5 6.2
2015-Jan-21 21:33N 47°39' W 122°27'0 7.5
2015-Jan-21 21:30N 47°39' W 122°27'1 1.3
2015-Jan-21 20:33N 47°40' W 122°25'0 0.0
2015-Jan-21 20:30N 47°40' W 122°25'0 0.0
2015-Jan-21 19:33N 47°40' W 122°25'0 0.1
2015-Jan-21 19:30N 47°40' W 122°25'0 0.0
2015-Jan-21 18:33N 47°40' W 122°25'0 0.0
2015-Jan-21 18:30N 47°40' W 122°25'  

Dump ship's entire track history